Time;durP1;ratioP1;P1;durP2;ratioP2;P2;SDS_P1;SDS_P2;PMS_P1;PMS_P2;Temp;Humidity;BMP_temperature;BMP_pressure;BME280_temperature;BME280_humidity;BME280_pressure;Samples;Min_cycle;Max_cycle;Signal;HPM_P1;HPM_P2
2023/01/23 00:00:26;;;;;;;34.35;18.17;;;;;;;;;;5048486;28;20060;-68
2023/01/23 00:02:51;;;;;;;17.42;10.98;;;;;;;;;;5048438;28;20460;-67
2023/01/23 00:05:16;;;;;;;12.65;9.30;;;;;;;;;;5048618;28;20036;-68
2023/01/23 00:07:42;;;;;;;45.22;24.35;;;;;;;;;;5048383;28;20206;-68
2023/01/23 00:10:07;;;;;;;22.90;12.80;;;;;;;;;;5047217;28;20411;-68
2023/01/23 00:12:33;;;;;;;18.23;11.80;;;;;;;;;;5046935;28;20041;-66
2023/01/23 00:14:58;;;;;;;17.80;12.40;;;;;;;;;;5029886;28;20033;-68
2023/01/23 00:17:26;;;;;;;16.15;10.63;;;;;;;;;;5048606;28;20037;-67
2023/01/23 00:19:52;;;;;;;22.73;13.02;;;;;;;;;;5030497;28;20095;-67
2023/01/23 00:22:17;;;;;;;17.85;11.18;;;;;;;;;;5045989;28;20025;-67
2023/01/23 00:24:42;;;;;;;23.50;13.98;;;;;;;;;;5048222;28;20067;-67
2023/01/23 00:27:08;;;;;;;26.42;14.05;;;;;;;;;;5048397;28;20025;-66
2023/01/23 00:29:33;;;;;;;43.70;20.52;;;;;;;;;;5030090;28;20036;-74
2023/01/23 00:31:58;;;;;;;37.35;19.10;;;;;;;;;;5031892;28;20029;-74
2023/01/23 00:34:24;;;;;;;22.13;13.40;;;;;;;;;;5048433;28;20120;-74
2023/01/23 00:36:49;;;;;;;31.67;16.65;;;;;;;;;;5051219;28;20404;-71
2023/01/23 00:39:16;;;;;;;29.45;15.15;;;;;;;;;;5050904;28;20090;-71
2023/01/23 00:41:42;;;;;;;24.00;14.50;;;;;;;;;;5017793;28;20036;-69
2023/01/23 00:44:08;;;;;;;13.43;9.32;;;;;;;;;;5034294;28;20032;-69
2023/01/23 00:46:33;;;;;;;13.68;10.00;;;;;;;;;;5034061;28;20040;-69
2023/01/23 00:48:59;;;;;;;13.18;9.48;;;;;;;;;;5034321;28;20021;-70
2023/01/23 00:51:24;;;;;;;14.70;11.23;;;;;;;;;;5033426;28;20114;-70
2023/01/23 00:53:50;;;;;;;15.07;11.43;;;;;;;;;;5033958;28;20070;-70
2023/01/23 00:56:15;;;;;;;25.02;16.15;;;;;;;;;;5034477;28;20037;-70
2023/01/23 00:58:40;;;;;;;18.95;12.77;;;;;;;;;;5050242;28;20135;-70
2023/01/23 01:01:06;;;;;;;29.02;17.10;;;;;;;;;;5033916;28;20210;-70
2023/01/23 01:03:32;;;;;;;16.90;11.55;;;;;;;;;;5039614;28;20025;-71
2023/01/23 01:05:57;;;;;;;11.63;8.85;;;;;;;;;;4997687;28;20040;-72
2023/01/23 01:08:22;;;;;;;9.82;7.50;;;;;;;;;;5030712;28;20017;-70
2023/01/23 01:10:48;;;;;;;17.25;11.60;;;;;;;;;;5030657;28;20033;-72
2023/01/23 01:13:18;;;;;;;10.95;8.68;;;;;;;;;;5031547;28;20025;-72
2023/01/23 01:15:43;;;;;;;17.00;11.07;;;;;;;;;;5021376;28;20690;-70
2023/01/23 01:18:09;;;;;;;37.92;22.02;;;;;;;;;;5016801;28;20037;-75
2023/01/23 01:20:34;;;;;;;10.35;8.93;;;;;;;;;;5033260;28;20044;-69
2023/01/23 01:22:59;;;;;;;8.00;7.15;;;;;;;;;;5033444;28;20025;-71
2023/01/23 01:25:25;;;;;;;20.27;12.45;;;;;;;;;;5051419;28;20028;-69
2023/01/23 01:27:52;;;;;;;11.38;8.65;;;;;;;;;;5050942;28;20374;-69
2023/01/23 01:30:18;;;;;;;11.48;8.70;;;;;;;;;;5049933;28;20110;-68
2023/01/23 01:32:46;;;;;;;43.13;22.95;;;;;;;;;;5050900;28;20041;-69
2023/01/23 01:35:12;;;;;;;29.33;17.60;;;;;;;;;;5032683;28;20068;-70
2023/01/23 01:37:38;;;;;;;37.85;21.58;;;;;;;;;;5013895;28;20073;-70
2023/01/23 01:40:05;;;;;;;13.90;10.13;;;;;;;;;;5029838;28;20037;-68
2023/01/23 01:42:37;;;;;;;11.45;8.82;;;;;;;;;;5018284;28;20079;-70
2023/01/23 01:45:02;;;;;;;8.55;7.65;;;;;;;;;;5030057;28;20029;-70
2023/01/23 01:47:28;;;;;;;10.80;7.60;;;;;;;;;;5042956;28;20156;-69
2023/01/23 01:49:56;;;;;;;16.75;13.77;;;;;;;;;;5012319;28;20065;-69
2023/01/23 01:52:22;;;;;;;13.50;10.32;;;;;;;;;;5026593;28;20036;-69
2023/01/23 01:54:47;;;;;;;15.23;11.05;;;;;;;;;;5011539;28;20723;-69
2023/01/23 01:57:19;;;;;;;10.15;8.05;;;;;;;;;;5009754;28;20552;-70
2023/01/23 01:59:53;;;;;;;8.18;7.38;;;;;;;;;;5009137;28;20036;-70
2023/01/23 02:02:28;;;;;;;9.55;8.27;;;;;;;;;;4977316;28;20096;-69
2023/01/23 02:04:58;;;;;;;10.73;9.48;;;;;;;;;;5009515;28;20025;-69
2023/01/23 02:07:28;;;;;;;9.63;8.10;;;;;;;;;;5009532;28;20477;-69
2023/01/23 02:09:56;;;;;;;10.15;8.30;;;;;;;;;;5010575;28;20049;-70
2023/01/23 02:12:22;;;;;;;8.90;7.50;;;;;;;;;;5009991;28;20036;-71
2023/01/23 02:14:47;;;;;;;8.38;7.00;;;;;;;;;;5009203;28;20457;-71
2023/01/23 02:17:12;;;;;;;8.35;7.25;;;;;;;;;;5009351;28;20026;-71
2023/01/23 02:19:58;;;;;;;10.25;7.78;;;;;;;;;;5010198;28;20393;-71
2023/01/23 02:22:23;;;;;;;9.50;8.38;;;;;;;;;;4992742;28;20037;-71
2023/01/23 02:24:55;;;;;;;11.32;9.73;;;;;;;;;;4993147;28;20033;-71
2023/01/23 02:27:20;;;;;;;8.95;8.05;;;;;;;;;;5042075;28;20034;-70
2023/01/23 02:29:47;;;;;;;10.40;9.00;;;;;;;;;;5009425;28;20045;-68
2023/01/23 02:32:13;;;;;;;11.15;8.10;;;;;;;;;;5009276;28;20504;-68
2023/01/23 02:34:40;;;;;;;8.85;7.88;;;;;;;;;;5010167;28;20033;-68
2023/01/23 02:37:07;;;;;;;9.10;7.75;;;;;;;;;;5025750;28;20041;-68
2023/01/23 02:39:33;;;;;;;8.90;7.60;;;;;;;;;;5042056;28;20157;-69
2023/01/23 02:42:00;;;;;;;12.57;11.20;;;;;;;;;;4991670;28;20478;-68
2023/01/23 02:44:40;;;;;;;;;;;;;;;;;;5010607;28;20049;-69
2023/01/23 02:47:10;;;;;;;9.23;7.85;;;;;;;;;;4991795;28;20392;-68
2023/01/23 02:49:36;;;;;;;10.73;8.70;;;;;;;;;;5041607;28;20607;-69
2023/01/23 02:52:04;;;;;;;8.40;7.30;;;;;;;;;;5008800;28;20561;-69
2023/01/23 02:54:30;;;;;;;8.60;6.88;;;;;;;;;;4992426;28;20029;-69
2023/01/23 02:56:56;;;;;;;8.15;6.43;;;;;;;;;;5008624;28;20758;-70
2023/01/23 03:02:06;;;;;;;8.88;7.25;;;;;;;;;;5031792;28;20153;-69
2023/01/23 03:04:32;;;;;;;9.48;7.50;;;;;;;;;;5009645;28;20136;-69
2023/01/23 03:06:58;;;;;;;9.75;8.07;;;;;;;;;;4995940;28;20037;-69
2023/01/23 03:09:23;;;;;;;13.55;10.98;;;;;;;;;;5041141;28;20037;-70
2023/01/23 03:11:51;;;;;;;13.75;11.88;;;;;;;;;;5008187;28;20076;-69
2023/01/23 03:14:20;;;;;;;14.27;11.52;;;;;;;;;;5024758;28;20029;-70
2023/01/23 03:16:50;;;;;;;9.10;8.18;;;;;;;;;;4975747;28;20037;-69
2023/01/23 03:19:16;;;;;;;11.68;10.43;;;;;;;;;;5008714;28;20034;-74
2023/01/23 03:21:42;;;;;;;9.32;8.30;;;;;;;;;;5008481;28;20038;-74
2023/01/23 03:24:09;;;;;;;7.88;7.10;;;;;;;;;;5009855;28;20782;-75
2023/01/23 03:26:37;;;;;;;7.85;6.65;;;;;;;;;;4977781;28;20462;-75
2023/01/23 03:31:46;;;;;;;7.32;6.63;;;;;;;;;;5010621;28;20108;-75
2023/01/23 03:34:11;;;;;;;9.38;7.18;;;;;;;;;;4986039;28;20764;-77
2023/01/23 03:36:37;;;;;;;6.55;5.90;;;;;;;;;;4995654;28;20038;-77
2023/01/23 03:41:48;;;;;;;6.93;6.22;;;;;;;;;;5010212;28;20036;-77
2023/01/23 03:44:17;;;;;;;7.57;6.70;;;;;;;;;;4994601;28;20022;-77
2023/01/23 03:46:45;;;;;;;7.63;6.75;;;;;;;;;;5035594;28;20041;-76
2023/01/23 03:49:10;;;;;;;7.20;6.53;;;;;;;;;;5030833;28;20026;-75
2023/01/23 03:51:36;;;;;;;8.23;7.43;;;;;;;;;;5010861;28;20136;-75
2023/01/23 03:54:01;;;;;;;9.13;8.23;;;;;;;;;;5008317;28;20033;-70
2023/01/23 03:56:26;;;;;;;7.22;6.53;;;;;;;;;;5007838;28;20033;-70
2023/01/23 03:58:52;;;;;;;7.00;6.30;;;;;;;;;;5007949;28;20059;-68
2023/01/23 04:01:19;;;;;;;9.63;8.63;;;;;;;;;;4991674;28;20038;-69
2023/01/23 04:03:44;;;;;;;8.93;7.55;;;;;;;;;;5007601;28;20032;-68
2023/01/23 04:06:10;;;;;;;7.82;7.03;;;;;;;;;;5007818;28;20026;-68
2023/01/23 04:08:36;;;;;;;7.07;6.38;;;;;;;;;;5007659;28;20413;-68
2023/01/23 04:11:07;;;;;;;8.45;6.95;;;;;;;;;;5005454;28;20045;-68
2023/01/23 04:13:32;;;;;;;;;;;;;;;;;;5017648;28;20045;-65
2023/01/23 04:15:58;;;;;;;8.50;7.65;;;;;;;;;;5027478;28;20368;-65
2023/01/23 04:18:24;;;;;;;8.73;7.25;;;;;;;;;;5026468;28;20044;-65
2023/01/23 04:20:49;;;;;;;9.05;7.53;;;;;;;;;;5010802;28;20100;-67
2023/01/23 04:23:15;;;;;;;7.85;6.57;;;;;;;;;;5010831;28;20381;-67
2023/01/23 04:25:40;;;;;;;42.47;26.40;;;;;;;;;;5010754;28;20036;-67
2023/01/23 04:28:10;;;;;;;26.97;20.27;;;;;;;;;;5026529;28;20021;-66
2023/01/23 04:30:36;;;;;;;16.73;15.00;;;;;;;;;;4999138;28;20045;-66
2023/01/23 04:33:09;;;;;;;10.55;9.43;;;;;;;;;;5007299;28;20052;-67
2023/01/23 04:35:35;;;;;;;7.93;7.18;;;;;;;;;;5007733;28;20482;-67
2023/01/23 04:38:01;;;;;;;8.52;7.30;;;;;;;;;;5007378;28;20030;-66
2023/01/23 04:40:27;;;;;;;7.47;6.78;;;;;;;;;;5006894;28;20458;-65
2023/01/23 04:42:56;;;;;;;9.52;7.43;;;;;;;;;;5007141;28;20030;-65
2023/01/23 04:45:30;;;;;;;9.48;7.55;;;;;;;;;;5007407;28;20044;-65
2023/01/23 04:48:22;;;;;;;7.10;6.43;;;;;;;;;;5038843;28;20037;-66
2023/01/23 04:50:47;;;;;;;6.85;6.25;;;;;;;;;;5046985;28;20064;-65
2023/01/23 04:53:13;;;;;;;6.95;6.25;;;;;;;;;;5029756;28;20153;-65
2023/01/23 04:55:39;;;;;;;8.90;7.53;;;;;;;;;;5013392;28;20033;-65
2023/01/23 04:58:10;;;;;;;7.40;6.70;;;;;;;;;;5030504;28;20029;-69
2023/01/23 05:00:35;;;;;;;7.78;6.18;;;;;;;;;;5029966;28;20048;-70
2023/01/23 05:03:02;;;;;;;8.95;7.88;;;;;;;;;;5030081;28;20025;-74
2023/01/23 05:05:28;;;;;;;7.90;7.10;;;;;;;;;;5030337;28;20037;-72
2023/01/23 05:07:57;;;;;;;10.07;8.60;;;;;;;;;;5030138;28;20033;-64
2023/01/23 05:10:23;;;;;;;10.35;9.07;;;;;;;;;;5014065;28;20786;-68
2023/01/23 05:12:48;;;;;;;16.13;12.93;;;;;;;;;;5030139;28;20036;-70
2023/01/23 05:15:16;;;;;;;13.85;11.65;;;;;;;;;;5031172;28;20365;-69
2023/01/23 05:17:43;;;;;;;7.53;6.78;;;;;;;;;;5046508;28;20105;-70
2023/01/23 05:20:09;;;;;;;12.88;8.90;;;;;;;;;;5038379;28;20459;-70
2023/01/23 05:22:37;;;;;;;9.57;8.30;;;;;;;;;;5048681;28;20555;-70
2023/01/23 05:25:03;;;;;;;12.40;9.00;;;;;;;;;;5051621;28;20029;-69
2023/01/23 05:27:29;;;;;;;8.40;6.90;;;;;;;;;;5032872;28;20025;-70
2023/01/23 05:29:54;;;;;;;18.58;12.30;;;;;;;;;;5035359;28;20095;-71
2023/01/23 05:32:23;;;;;;;11.48;9.10;;;;;;;;;;5034805;28;20021;-71
2023/01/23 05:34:55;;;;;;;9.23;7.60;;;;;;;;;;5051624;28;20408;-67
2023/01/23 05:37:24;;;;;;;9.95;7.07;;;;;;;;;;5034965;28;20025;-66
2023/01/23 05:39:52;;;;;;;7.65;6.82;;;;;;;;;;5051080;28;20028;-67
2023/01/23 05:42:19;;;;;;;9.98;7.93;;;;;;;;;;5051543;28;20043;-67
2023/01/23 05:45:05;;;;;;;18.50;9.85;;;;;;;;;;5031839;28;20037;-66
2023/01/23 05:47:39;;;;;;;16.25;9.32;;;;;;;;;;5052913;28;20124;-66
2023/01/23 05:50:06;;;;;;;33.60;14.95;;;;;;;;;;5034679;28;20029;-66
2023/01/23 05:52:34;;;;;;;33.55;14.43;;;;;;;;;;5034898;28;20538;-66
2023/01/23 05:55:00;;;;;;;9.65;7.30;;;;;;;;;;5035150;28;20605;-66
2023/01/23 05:57:26;;;;;;;7.72;6.50;;;;;;;;;;5035421;28;20064;-66
2023/01/23 06:00:11;;;;;;;6.90;6.20;;;;;;;;;;5052404;28;20047;-67
2023/01/23 06:03:08;;;;;;;10.05;9.05;;;;;;;;;;5051217;28;20052;-66
2023/01/23 06:05:49;;;;;;;13.75;10.60;;;;;;;;;;5033507;28;20025;-66
2023/01/23 06:08:17;;;;;;;55.70;50.10;;;;;;;;;;5034167;28;20033;-67
2023/01/23 06:10:42;;;;;;;22.33;20.00;;;;;;;;;;5034593;28;20036;-65
2023/01/23 06:13:08;;;;;;;36.15;30.80;;;;;;;;;;5034530;28;20500;-65
2023/01/23 06:15:35;;;;;;;35.35;31.50;;;;;;;;;;5033565;28;20025;-74
2023/01/23 06:18:04;;;;;;;16.13;14.57;;;;;;;;;;5052157;28;20106;-74
2023/01/23 06:20:30;;;;;;;8.25;7.45;;;;;;;;;;5052159;28;20314;-72
2023/01/23 06:22:58;;;;;;;8.70;7.38;;;;;;;;;;5037338;28;20029;-71
2023/01/23 06:25:25;;;;;;;12.95;11.75;;;;;;;;;;5037084;28;20025;-71
2023/01/23 06:27:52;;;;;;;11.85;10.73;;;;;;;;;;5035764;28;20036;-73
2023/01/23 06:30:17;;;;;;;8.93;8.02;;;;;;;;;;5035214;28;20408;-73
2023/01/23 06:32:45;;;;;;;12.43;9.75;;;;;;;;;;5035465;28;20028;-72
2023/01/23 06:35:13;;;;;;;12.13;10.82;;;;;;;;;;5034754;28;20095;-73
2023/01/23 06:37:45;;;;;;;9.43;8.20;;;;;;;;;;5051999;28;20024;-72
2023/01/23 06:40:13;;;;;;;10.55;8.73;;;;;;;;;;5046544;28;20029;-72
2023/01/23 06:42:44;;;;;;;9.77;8.77;;;;;;;;;;5050643;28;20029;-72
2023/01/23 06:45:10;;;;;;;8.82;8.02;;;;;;;;;;5049430;28;20490;-72
2023/01/23 06:47:36;;;;;;;9.82;8.82;;;;;;;;;;5016213;28;20038;-72
2023/01/23 06:50:03;;;;;;;10.32;8.00;;;;;;;;;;5011419;28;20405;-72
2023/01/23 06:52:33;;;;;;;9.07;7.65;;;;;;;;;;4994252;28;20541;-70
2023/01/23 06:54:58;;;;;;;7.75;6.95;;;;;;;;;;5011584;28;20030;-70
2023/01/23 06:57:24;;;;;;;7.85;7.05;;;;;;;;;;5013399;28;20017;-74
2023/01/23 06:59:53;;;;;;;7.15;6.45;;;;;;;;;;5028440;28;20006;-74
2023/01/23 07:02:19;;;;;;;8.95;7.60;;;;;;;;;;5013187;28;20100;-74
2023/01/23 07:04:49;;;;;;;9.25;7.63;;;;;;;;;;5027162;28;20038;-74
2023/01/23 07:07:15;;;;;;;8.65;7.30;;;;;;;;;;5012386;28;20585;-74
2023/01/23 07:09:41;;;;;;;7.90;7.10;;;;;;;;;;5007609;28;20056;-74
2023/01/23 07:12:17;;;;;;;8.35;7.55;;;;;;;;;;5012961;28;20371;-74
2023/01/23 07:14:43;;;;;;;14.20;9.52;;;;;;;;;;5028941;28;20060;-74
2023/01/23 07:17:11;;;;;;;12.75;9.32;;;;;;;;;;5029004;28;20080;-74
2023/01/23 07:19:36;;;;;;;14.55;10.38;;;;;;;;;;4995317;28;20030;-70
2023/01/23 07:22:05;;;;;;;15.43;12.63;;;;;;;;;;5027610;28;20030;-70
2023/01/23 07:24:31;;;;;;;7.65;6.95;;;;;;;;;;5011415;28;20010;-70
2023/01/23 07:26:57;;;;;;;7.68;6.97;;;;;;;;;;5011447;28;20116;-70
2023/01/23 07:29:22;;;;;;;18.55;15.52;;;;;;;;;;5012349;28;20759;-70
2023/01/23 07:31:48;;;;;;;12.48;10.35;;;;;;;;;;5010270;28;20030;-70
2023/01/23 07:34:14;;;;;;;32.08;22.05;;;;;;;;;;4994998;28;20045;-70
2023/01/23 07:36:39;;;;;;;48.30;32.15;;;;;;;;;;5012524;28;20038;-70
2023/01/23 07:39:04;;;;;;;77.88;55.60;;;;;;;;;;5011188;28;20049;-70
2023/01/23 07:41:30;;;;;;;31.25;28.08;;;;;;;;;;5027542;28;20485;-70
2023/01/23 07:44:00;;;;;;;48.15;33.08;;;;;;;;;;5026138;28;20010;-69
2023/01/23 07:46:25;;;;;;;99.63;61.97;;;;;;;;;;5014242;28;20509;-70
2023/01/23 07:48:51;;;;;;;66.85;40.40;;;;;;;;;;5047533;28;20592;-70
2023/01/23 07:51:17;;;;;;;57.35;31.20;;;;;;;;;;5046519;28;20668;-70
2023/01/23 07:53:42;;;;;;;289.15;118.07;;;;;;;;;;5030840;28;20033;-70
2023/01/23 07:56:08;;;;;;;108.47;56.47;;;;;;;;;;5029242;28;20029;-70
2023/01/23 07:58:33;;;;;;;129.95;64.20;;;;;;;;;;5031133;28;20481;-70
2023/01/23 08:00:58;;;;;;;58.33;35.75;;;;;;;;;;5030300;28;20045;-70
2023/01/23 08:03:27;;;;;;;63.03;37.90;;;;;;;;;;5030162;28;20032;-70
2023/01/23 08:05:53;;;;;;;56.50;36.22;;;;;;;;;;5031638;28;20029;-70
2023/01/23 08:08:18;;;;;;;54.10;37.42;;;;;;;;;;5046269;28;20554;-70
2023/01/23 08:10:43;;;;;;;78.43;51.72;;;;;;;;;;5025928;28;20438;-70
2023/01/23 08:13:09;;;;;;;140.00;76.50;;;;;;;;;;5011041;28;20096;-70
2023/01/23 08:15:35;;;;;;;54.45;40.55;;;;;;;;;;5010850;28;20025;-70
2023/01/23 08:18:01;;;;;;;65.32;43.88;;;;;;;;;;5011021;28;20040;-70
2023/01/23 08:20:26;;;;;;;80.40;40.40;;;;;;;;;;5010708;28;20030;-70
2023/01/23 08:22:53;;;;;;;69.40;27.42;;;;;;;;;;5011301;28;20401;-70
2023/01/23 08:25:18;;;;;;;36.97;18.23;;;;;;;;;;5044950;28;20044;-70
2023/01/23 08:27:43;;;;;;;39.85;18.48;;;;;;;;;;5030123;28;20029;-70
2023/01/23 08:30:09;;;;;;;29.48;16.20;;;;;;;;;;5029642;28;20469;-70
2023/01/23 08:32:35;;;;;;;26.95;20.23;;;;;;;;;;5030828;28;20033;-70
2023/01/23 08:35:00;;;;;;;68.25;37.47;;;;;;;;;;5030736;28;20380;-70
2023/01/23 08:37:25;;;;;;;103.75;51.20;;;;;;;;;;5029280;28;20037;-70
2023/01/23 08:39:51;;;;;;;72.25;40.25;;;;;;;;;;5012891;28;20034;-70
2023/01/23 08:42:16;;;;;;;65.82;43.38;;;;;;;;;;5030208;28;20623;-70
2023/01/23 08:44:41;;;;;;;55.75;40.55;;;;;;;;;;5030297;28;20065;-70
2023/01/23 08:47:07;;;;;;;51.40;37.92;;;;;;;;;;5013122;28;20049;-70
2023/01/23 08:49:32;;;;;;;56.25;40.53;;;;;;;;;;5030633;28;20037;-70
2023/01/23 08:51:58;;;;;;;15.00;11.88;;;;;;;;;;5029110;28;20038;-70
2023/01/23 08:54:24;;;;;;;11.15;10.05;;;;;;;;;;5029332;28;20465;-71
2023/01/23 08:56:49;;;;;;;13.25;12.05;;;;;;;;;;5032064;28;20433;-70
2023/01/23 08:59:15;;;;;;;13.60;11.68;;;;;;;;;;5034777;28;20029;-73
2023/01/23 09:01:40;;;;;;;24.63;19.73;;;;;;;;;;5034540;28;20029;-70
2023/01/23 09:04:07;;;;;;;24.85;20.27;;;;;;;;;;5035531;28;20033;-73
2023/01/23 09:06:32;;;;;;;18.15;16.25;;;;;;;;;;5017560;28;20038;-70
2023/01/23 09:08:57;;;;;;;23.73;21.20;;;;;;;;;;5035233;28;20036;-70
2023/01/23 09:11:23;;;;;;;24.55;21.70;;;;;;;;;;5033830;28;20433;-70
2023/01/23 09:13:48;;;;;;;15.32;13.50;;;;;;;;;;5029352;28;20401;-70
2023/01/23 09:16:14;;;;;;;17.05;15.00;;;;;;;;;;5014193;28;20098;-70
2023/01/23 09:18:39;;;;;;;19.17;17.00;;;;;;;;;;5035059;28;20379;-70
2023/01/23 09:21:05;;;;;;;23.23;19.63;;;;;;;;;;5034337;28;20479;-70
2023/01/23 09:23:30;;;;;;;75.75;49.83;;;;;;;;;;5033536;28;20083;-70
2023/01/23 09:26:01;;;;;;;16.10;14.10;;;;;;;;;;5035167;28;20481;-70
2023/01/23 09:28:26;;;;;;;17.75;15.77;;;;;;;;;;5034929;28;20405;-70
2023/01/23 09:30:51;;;;;;;21.08;16.90;;;;;;;;;;5034629;28;20037;-70
2023/01/23 09:33:21;;;;;;;25.02;19.85;;;;;;;;;;5033792;28;20104;-70
2023/01/23 09:35:50;;;;;;;22.27;17.00;;;;;;;;;;5033851;28;20120;-70
2023/01/23 09:38:15;;;;;;;19.75;15.57;;;;;;;;;;5033177;28;20073;-70
2023/01/23 09:40:47;;;;;;;20.42;15.95;;;;;;;;;;5032130;28;20045;-70
2023/01/23 09:43:12;;;;;;;23.23;18.75;;;;;;;;;;5016550;28;20026;-70
2023/01/23 09:45:38;;;;;;;24.80;19.33;;;;;;;;;;5031988;28;20029;-70
2023/01/23 09:48:13;;;;;;;24.95;20.77;;;;;;;;;;5042980;28;20124;-69
2023/01/23 09:50:42;;;;;;;23.02;17.83;;;;;;;;;;5034357;28;20068;-70
2023/01/23 09:53:13;;;;;;;17.60;12.60;;;;;;;;;;5033453;28;20124;-70
2023/01/23 09:55:40;;;;;;;22.50;16.58;;;;;;;;;;5033648;28;20033;-62
2023/01/23 09:58:13;;;;;;;25.27;20.10;;;;;;;;;;5033621;28;20037;-70
2023/01/23 10:00:39;;;;;;;17.23;14.00;;;;;;;;;;5032021;28;20465;-71
2023/01/23 10:03:11;;;;;;;31.15;26.90;;;;;;;;;;5045240;28;20025;-71
2023/01/23 10:05:59;;;;;;;27.27;23.42;;;;;;;;;;5052661;28;20029;-70
2023/01/23 10:08:27;;;;;;;;;;;;;;;;;;5052969;28;20032;-71
2023/01/23 10:10:56;;;;;;;40.87;30.03;;;;;;;;;;5053522;28;19912;-70
2023/01/23 10:13:30;;;;;;;25.48;20.38;;;;;;;;;;5050539;28;20336;-70
2023/01/23 10:15:56;;;;;;;22.20;17.55;;;;;;;;;;5050833;28;20036;-70
2023/01/23 10:18:30;;;;;;;22.15;17.52;;;;;;;;;;5051362;28;20027;-70
2023/01/23 10:21:06;;;;;;;20.33;16.55;;;;;;;;;;5050972;28;20064;-70
2023/01/23 10:23:31;;;;;;;19.15;14.38;;;;;;;;;;5051058;28;20040;-70
2023/01/23 10:25:57;;;;;;;22.30;19.92;;;;;;;;;;5029725;28;20060;-70
2023/01/23 10:28:31;;;;;;;16.17;13.82;;;;;;;;;;5031316;28;20028;-70
2023/01/23 10:30:58;;;;;;;57.67;38.78;;;;;;;;;;5030120;28;20064;-70
2023/01/23 10:33:30;;;;;;;60.63;46.20;;;;;;;;;;5029245;28;20041;-70
2023/01/23 10:36:00;;;;;;;58.70;44.22;;;;;;;;;;5029902;28;20036;-69
2023/01/23 10:38:26;;;;;;;41.72;35.22;;;;;;;;;;5033495;28;20037;-70
2023/01/23 10:43:36;;;;;;;37.45;31.80;;;;;;;;;;5031969;28;20061;-68
2023/01/23 10:46:08;;;;;;;20.70;18.15;;;;;;;;;;5027955;28;20078;-70
2023/01/23 10:48:34;;;;;;;31.15;22.05;;;;;;;;;;5027810;28;20658;-70
2023/01/23 10:51:00;;;;;;;65.28;43.38;;;;;;;;;;5028997;28;20047;-70
2023/01/23 10:53:25;;;;;;;93.95;61.83;;;;;;;;;;5030963;28;20033;-70
2023/01/23 10:55:56;;;;;;;55.72;38.50;;;;;;;;;;5031431;28;20398;-70
2023/01/23 10:58:27;;;;;;;159.95;95.40;;;;;;;;;;5032115;28;20034;-70
2023/01/23 11:00:53;;;;;;;104.13;63.97;;;;;;;;;;5030034;28;20033;-68
2023/01/23 11:03:21;;;;;;;80.70;62.63;;;;;;;;;;5031088;28;20137;-69
2023/01/23 11:05:51;;;;;;;26.60;21.80;;;;;;;;;;5030657;28;20107;-70
2023/01/23 11:08:49;;;;;;;26.27;20.95;;;;;;;;;;5031461;28;20021;-70
2023/01/23 11:11:14;;;;;;;20.95;17.75;;;;;;;;;;4986339;28;20041;-70
2023/01/23 11:13:41;;;;;;;16.73;14.48;;;;;;;;;;5029246;28;20124;-70
2023/01/23 11:16:11;;;;;;;46.58;30.48;;;;;;;;;;5030923;28;20428;-70
2023/01/23 11:18:41;;;;;;;25.50;19.77;;;;;;;;;;5031214;28;20032;-70
2023/01/23 11:21:19;;;;;;;72.40;40.20;;;;;;;;;;5028801;28;20041;-73
2023/01/23 11:23:45;;;;;;;31.65;24.42;;;;;;;;;;5030290;28;20025;-70
2023/01/23 11:26:29;;;;;;;20.27;16.27;;;;;;;;;;5031626;28;20075;-74
2023/01/23 11:28:55;;;;;;;21.30;16.30;;;;;;;;;;5031064;28;20559;-74
2023/01/23 11:31:21;;;;;;;27.67;21.83;;;;;;;;;;5033195;28;20072;-73
2023/01/23 11:33:58;;;;;;;19.55;15.80;;;;;;;;;;5032621;28;20034;-74
2023/01/23 11:36:35;;;;;;;33.38;24.73;;;;;;;;;;5031666;28;20064;-74
2023/01/23 11:39:04;;;;;;;45.90;33.80;;;;;;;;;;5032694;28;20044;-70
2023/01/23 11:41:31;;;;;;;13.45;12.05;;;;;;;;;;5033305;28;20389;-74
2023/01/23 11:43:57;;;;;;;13.77;12.20;;;;;;;;;;5048773;28;20033;-74
2023/01/23 11:46:44;;;;;;;26.23;20.30;;;;;;;;;;5031655;28;20040;-74
2023/01/23 11:49:28;;;;;;;19.08;14.23;;;;;;;;;;5032837;28;20033;-74
2023/01/23 11:52:03;;;;;;;17.00;13.25;;;;;;;;;;5047595;28;20068;-75
2023/01/23 11:54:37;;;;;;;13.80;10.98;;;;;;;;;;5032109;28;20077;-75
2023/01/23 11:57:22;;;;;;;11.15;9.95;;;;;;;;;;5031640;28;20180;-75
2023/01/23 11:59:59;;;;;;;19.63;15.30;;;;;;;;;;5031164;28;20033;-75
2023/01/23 12:02:32;;;;;;;18.75;15.73;;;;;;;;;;5030228;28;20512;-75
2023/01/23 12:05:09;;;;;;;54.63;42.55;;;;;;;;;;5032130;28;20124;-75
2023/01/23 12:07:41;;;;;;;25.85;21.70;;;;;;;;;;5032652;28;20469;-75
2023/01/23 12:10:17;;;;;;;37.20;32.65;;;;;;;;;;5031657;28;20120;-75
2023/01/23 12:12:43;;;;;;;11.00;9.90;;;;;;;;;;5029392;28;20033;-75
2023/01/23 12:15:21;;;;;;;24.50;20.75;;;;;;;;;;5031652;28;20044;-74
2023/01/23 12:17:50;;;;;;;82.25;64.82;;;;;;;;;;5030699;28;20080;-74
2023/01/23 12:20:34;;;;;;;51.28;45.45;;;;;;;;;;5030441;28;20033;-74
2023/01/23 12:23:18;;;;;;;25.65;22.70;;;;;;;;;;5030275;28;20513;-74
2023/01/23 12:26:01;;;;;;;22.85;20.65;;;;;;;;;;5030112;28;20049;-74
2023/01/23 12:28:33;;;;;;;19.20;17.13;;;;;;;;;;5028253;28;20436;-74
2023/01/23 12:31:07;;;;;;;16.83;15.15;;;;;;;;;;5028590;28;20029;-74
2023/01/23 12:33:40;;;;;;;9.98;9.05;;;;;;;;;;5032691;28;20044;-74
2023/01/23 12:36:15;;;;;;;12.40;11.32;;;;;;;;;;5048367;28;20034;-74
2023/01/23 12:38:41;;;;;;;8.18;7.38;;;;;;;;;;5032781;28;20068;-75
2023/01/23 12:41:06;;;;;;;13.38;12.07;;;;;;;;;;5033154;28;20041;-75
2023/01/23 12:43:31;;;;;;;23.67;21.15;;;;;;;;;;5031077;28;20119;-75
2023/01/23 12:45:59;;;;;;;59.33;36.40;;;;;;;;;;5031666;28;20041;-75
2023/01/23 12:48:31;;;;;;;98.47;58.28;;;;;;;;;;5032996;28;20041;-75
2023/01/23 12:51:00;;;;;;;45.72;27.83;;;;;;;;;;5032777;28;20435;-75
2023/01/23 12:53:27;;;;;;;49.72;26.60;;;;;;;;;;5032621;28;20072;-75
2023/01/23 12:55:52;;;;;;;41.20;27.05;;;;;;;;;;5030946;28;20087;-75
2023/01/23 12:58:18;;;;;;;80.22;53.80;;;;;;;;;;5032618;28;20439;-75
2023/01/23 13:00:43;;;;;;;27.58;21.67;;;;;;;;;;5031617;28;20112;-75
2023/01/23 13:03:27;;;;;;;27.67;20.90;;;;;;;;;;5047502;28;20138;-75
2023/01/23 13:05:59;;;;;;;20.63;16.90;;;;;;;;;;5032065;28;20380;-75
2023/01/23 13:08:27;;;;;;;54.42;35.67;;;;;;;;;;5048045;28;20247;-75
2023/01/23 13:13:55;;;;;;;21.30;17.20;;;;;;;;;;5047132;28;20587;-75
2023/01/23 13:16:24;;;;;;;23.58;17.83;;;;;;;;;;5032521;28;20049;-75
2023/01/23 13:27:39;;;;;;;13.48;11.70;;;;;;;;;;5031757;28;20489;-75
2023/01/23 13:30:25;;;;;;;12.43;10.52;;;;;;;;;;5031851;28;20034;-73
2023/01/23 13:32:51;;;;;;;13.38;11.98;;;;;;;;;;4992745;28;20040;-71
2023/01/23 13:35:36;;;;;;;60.83;45.05;;;;;;;;;;5035061;28;20030;-74
2023/01/23 13:38:01;;;;;;;45.28;33.42;;;;;;;;;;5035982;28;20037;-73
2023/01/23 13:40:27;;;;;;;59.97;41.08;;;;;;;;;;5035014;28;20036;-73
2023/01/23 13:42:52;;;;;;;64.93;44.90;;;;;;;;;;5034799;28;20025;-73
2023/01/23 13:45:26;;;;;;;33.92;21.85;;;;;;;;;;5034815;28;20037;-72
2023/01/23 13:50:48;;;;;;;33.90;29.38;;;;;;;;;;5053144;28;20044;-75
2023/01/23 13:58:47;;;;;;;46.92;33.30;;;;;;;;;;5053685;28;20120;-72
2023/01/23 14:06:56;;;;;;;36.75;26.40;;;;;;;;;;5054322;28;20120;-77
2023/01/23 14:09:24;;;;;;;1104.05;546.30;;;;;;;;;;5055267;28;20049;-76
2023/01/23 14:12:04;;;;;;;21.25;17.05;;;;;;;;;;5054118;28;20033;-74
2023/01/23 14:17:22;;;;;;;18.08;15.80;;;;;;;;;;5052733;28;20041;-70
2023/01/23 14:20:05;;;;;;;43.58;35.95;;;;;;;;;;5053181;28;20036;-70
2023/01/23 14:22:31;;;;;;;68.20;47.97;;;;;;;;;;5017926;28;20033;-70
2023/01/23 14:24:56;;;;;;;75.25;51.60;;;;;;;;;;5050310;28;20059;-70
2023/01/23 14:27:35;;;;;;;37.58;32.25;;;;;;;;;;5050065;28;20029;-70
2023/01/23 14:30:15;;;;;;;31.13;27.38;;;;;;;;;;5049825;28;20477;-70
2023/01/23 14:32:41;;;;;;;18.27;16.33;;;;;;;;;;5015142;28;20111;-70
2023/01/23 14:35:21;;;;;;;32.75;29.35;;;;;;;;;;5034015;28;20842;-72
2023/01/23 14:37:47;;;;;;;25.85;20.65;;;;;;;;;;5051260;28;20029;-72
2023/01/23 14:40:15;;;;;;;31.17;25.27;;;;;;;;;;5050824;28;20578;-72
2023/01/23 14:42:40;;;;;;;25.05;20.95;;;;;;;;;;5051558;28;20499;-72
2023/01/23 14:45:09;;;;;;;39.97;33.47;;;;;;;;;;5052238;28;20072;-72
2023/01/23 14:47:44;;;;;;;108.40;68.07;;;;;;;;;;5051582;28;20049;-72
2023/01/23 14:50:14;;;;;;;24.27;18.50;;;;;;;;;;5034714;28;20380;-73
2023/01/23 14:52:41;;;;;;;40.83;35.15;;;;;;;;;;5034539;28;20029;-73
2023/01/23 14:55:22;;;;;;;63.58;53.58;;;;;;;;;;5051116;28;20470;-72
2023/01/23 14:57:51;;;;;;;42.80;32.72;;;;;;;;;;5052296;28;20033;-72
2023/01/23 15:00:18;;;;;;;100.32;71.60;;;;;;;;;;5052211;28;20033;-72
2023/01/23 15:02:45;;;;;;;92.07;54.35;;;;;;;;;;5034262;28;20834;-73
2023/01/23 15:05:10;;;;;;;56.78;39.20;;;;;;;;;;5016839;28;20033;-73
2023/01/23 15:07:46;;;;;;;34.00;28.08;;;;;;;;;;5034009;28;20021;-72
2023/01/23 15:10:19;;;;;;;18.67;14.32;;;;;;;;;;5033859;28;20040;-73
2023/01/23 15:12:50;;;;;;;23.25;19.00;;;;;;;;;;5051733;28;20035;-73